Time;durP1;ratioP1;P1;durP2;ratioP2;P2;SDS_P1;SDS_P2;PMS_P1;PMS_P2;Temp;Humidity;BMP_temperature;BMP_pressure;BME280_temperature;BME280_humidity;BME280_pressure;Samples;Min_cycle;Max_cycle;Signal;HPM_P1;HPM_P2
2024/02/09 00:01:37;;;;;;;;;;;;;;;20.70;42.03;98381.59;4231289;28;19931;-58
2024/02/09 00:03:39;;;;;;;;;;;;;;;20.84;41.67;98366.63;4231522;28;19971;-57
2024/02/09 00:05:41;;;;;;;;;;;;;;;20.93;41.38;98370.09;4231202;28;19928;-58
2024/02/09 00:07:48;;;;;;;;;;;;;;;20.71;41.95;98376.06;4231359;28;19931;-58
2024/02/09 00:09:49;;;;;;;;;;;;;;;20.85;42.03;98379.84;4231332;28;19923;-57
2024/02/09 00:11:52;;;;;;;;;;;;;;;20.76;41.56;98358.72;4231142;28;19927;-58
2024/02/09 00:13:55;;;;;;;;;;;;;;;20.81;41.63;98386.53;4231383;28;20389;-58
2024/02/09 00:15:57;;;;;;;;;;;;;;;20.76;41.50;98372.88;4231390;28;19931;-58
2024/02/09 00:17:58;;;;;;;;;;;;;;;20.91;41.66;98378.28;4231424;28;20382;-58
2024/02/09 00:20:01;;;;;;;;;;;;;;;21.01;41.52;98378.03;4230921;28;19947;-58
2024/02/09 00:22:03;;;;;;;;;;;;;;;21.03;41.25;98373.34;4231513;28;20369;-59
2024/02/09 00:24:06;;;;;;;;;;;;;;;20.70;41.74;98370.91;4231397;28;19924;-58
2024/02/09 00:26:07;;;;;;;;;;;;;;;20.70;41.45;98366.38;4231217;28;19923;-58
2024/02/09 00:28:11;;;;;;;;;;;;;;;20.56;42.21;98359.13;4231079;28;19924;-57
2024/02/09 00:30:13;;;;;;;;;;;;;;;20.48;42.09;98376.03;4231318;28;19963;-58
2024/02/09 00:32:15;;;;;;;;;;;;;;;20.52;42.07;98365.84;4213028;28;19931;-57
2024/02/09 00:34:17;;;;;;;;;;;;;;;20.60;41.71;98360.44;4230987;28;20019;-57
2024/02/09 00:36:21;;;;;;;;;;;;;;;20.66;42.22;98372.28;4231121;28;20108;-57
2024/02/09 00:38:23;;;;;;;;;;;;;;;20.55;41.31;98362.84;4231274;28;19930;-58
2024/02/09 00:40:25;;;;;;;;;;;;;;;20.40;41.93;98362.75;4230935;28;19934;-58
2024/02/09 00:42:27;;;;;;;;;;;;;;;20.58;41.92;98362.47;4231152;28;19973;-58
2024/02/09 00:44:29;;;;;;;;;;;;;;;20.66;41.74;98353.59;4230906;28;20356;-54
2024/02/09 00:46:32;;;;;;;;;;;;;;;20.68;41.59;98346.19;4230976;28;19931;-59
2024/02/09 00:48:34;;;;;;;;;;;;;;;20.80;41.70;98352.81;4230820;28;19977;-58
2024/02/09 00:50:35;;;;;;;;;;;;;;;20.92;41.36;98337.19;4230936;28;20392;-58
2024/02/09 00:52:37;;;;;;;;;;;;;;;20.73;41.32;98335.88;4230952;28;20015;-58
2024/02/09 00:54:39;;;;;;;;;;;;;;;20.79;41.19;98359.19;4230943;28;20026;-58
2024/02/09 00:56:41;;;;;;;;;;;;;;;20.47;41.80;98350.34;4231020;28;19927;-58
2024/02/09 00:58:42;;;;;;;;;;;;;;;20.50;41.95;98343.81;4233949;28;19930;-58
2024/02/09 01:00:44;;;;;;;;;;;;;;;20.70;41.47;98344.19;4234448;28;19924;-58
2024/02/09 01:02:46;;;;;;;;;;;;;;;20.71;41.22;98324.50;4234426;28;19954;-58
2024/02/09 01:04:48;;;;;;;;;;;;;;;20.77;41.55;98328.28;4234003;28;20292;-58
2024/02/09 01:06:49;;;;;;;;;;;;;;;20.73;41.25;98325.19;4234327;28;19928;-58
2024/02/09 01:08:51;;;;;;;;;;;;;;;20.84;41.28;98322.06;4234550;28;19973;-58
2024/02/09 01:10:53;;;;;;;;;;;;;;;20.81;41.35;98318.94;4234363;28;19931;-58
2024/02/09 02:46:14;;;;;;;;;;;;;;;21.45;39.75;98183.97;4232470;28;20441;-58
2024/02/09 03:04:36;;;;;;;;;;;;;;;21.38;39.58;98167.81;4232508;28;19923;-59
2024/02/09 03:06:38;;;;;;;;;;;;;;;21.31;39.72;98173.09;4232411;28;19958;-60
2024/02/09 03:08:59;;;;;;;;;;;;;;;21.41;39.59;98170.13;4232396;28;19924;-59
2024/02/09 03:11:03;;;;;;;;;;;;;;;21.31;39.54;98167.75;4232381;28;19934;-59
2024/02/09 03:13:08;;;;;;;;;;;;;;;21.26;39.79;98164.78;4232253;28;19924;-60
2024/02/09 03:15:09;;;;;;;;;;;;;;;21.35;39.69;98168.19;4231850;28;19930;-59
2024/02/09 03:17:11;;;;;;;;;;;;;;;21.39;39.46;98159.59;4232493;28;20299;-59
2024/02/09 03:19:15;;;;;;;;;;;;;;;21.42;39.34;98155.72;4232277;28;19924;-59
2024/02/09 03:21:25;;;;;;;;;;;;;;;21.46;39.26;98143.66;4230987;28;19924;-59
2024/02/09 03:23:27;;;;;;;;;;;;;;;21.38;39.51;98154.47;4232243;28;19946;-59
2024/02/09 03:41:12;;;;;;;;;;;;;;;21.40;38.98;98163.13;4231547;28;19930;-59
2024/02/09 03:43:14;;;;;;;;;;;;;;;21.31;39.53;98167.75;4231608;28;19930;-59
2024/02/09 03:45:15;;;;;;;;;;;;;;;21.33;39.51;98159.53;4231488;28;19923;-59
2024/02/09 03:47:19;;;;;;;;;;;;;;;21.41;39.21;98164.78;4231621;28;19946;-59
2024/02/09 03:49:20;;;;;;;;;;;;;;;21.13;39.43;98173.50;4231686;28;19924;-59
2024/02/09 03:51:25;;;;;;;;;;;;;;;21.13;39.68;98180.66;4231747;28;20365;-59
2024/02/09 03:53:26;;;;;;;;;;;;;;;21.28;39.49;98169.97;4231633;28;19976;-60
2024/02/09 03:55:28;;;;;;;;;;;;;;;21.28;39.61;98170.78;4231479;28;19974;-59
2024/02/09 03:57:31;;;;;;;;;;;;;;;21.33;39.37;98167.56;4231037;28;19924;-59
2024/02/09 03:59:33;;;;;;;;;;;;;;;21.38;39.46;98167.81;4231898;28;19950;-59
2024/02/09 04:01:34;;;;;;;;;;;;;;;21.39;39.35;98146.25;4231495;28;19924;-57
2024/02/09 04:03:36;;;;;;;;;;;;;;;21.45;39.22;98165.25;4213501;28;19959;-58
2024/02/09 04:05:38;;;;;;;;;;;;;;;21.48;39.23;98154.16;4231308;28;19970;-59
2024/02/09 04:07:40;;;;;;;;;;;;;;;21.52;39.18;98160.81;4231407;28;19951;-58
2024/02/09 04:09:42;;;;;;;;;;;;;;;21.54;39.21;98164.09;4231661;28;20295;-58
2024/02/09 04:12:04;;;;;;;;;;;;;;;21.58;38.95;98152.06;4231209;28;20336;-59
2024/02/09 04:14:05;;;;;;;;;;;;;;;21.57;39.15;98153.06;4230994;28;19931;-60
2024/02/09 04:16:08;;;;;;;;;;;;;;;21.60;39.05;98160.69;4213138;28;19924;-59
2024/02/09 04:18:10;;;;;;;;;;;;;;;21.54;39.18;98158.75;4231496;28;19928;-60
2024/02/09 04:20:13;;;;;;;;;;;;;;;21.57;39.12;98152.22;4231231;28;20426;-59
2024/02/09 04:22:15;;;;;;;;;;;;;;;21.58;39.18;98152.06;4231180;28;19924;-59
2024/02/09 04:24:23;;;;;;;;;;;;;;;21.60;39.20;98154.53;4231180;28;19924;-59
2024/02/09 04:26:25;;;;;;;;;;;;;;;21.62;38.99;98147.97;4230881;28;19970;-59
2024/02/09 04:28:26;;;;;;;;;;;;;;;21.53;38.59;98141.88;4230990;28;19992;-59
2024/02/09 04:30:28;;;;;;;;;;;;;;;21.33;39.15;98140.84;4230981;28;19953;-60
2024/02/09 04:32:30;;;;;;;;;;;;;;;21.35;39.35;98146.78;4230650;28;20346;-59
2024/02/09 04:34:32;;;;;;;;;;;;;;;21.44;38.99;98166.25;4230604;28;19924;-60
2024/02/09 04:36:33;;;;;;;;;;;;;;;21.29;39.21;98168.94;4231204;28;19928;-59
2024/02/09 04:38:37;;;;;;;;;;;;;;;21.38;39.54;98178.53;4231094;28;19924;-58
2024/02/09 04:40:39;;;;;;;;;;;;;;;21.31;39.08;98188.31;4230651;28;19965;-60
2024/02/09 04:42:42;;;;;;;;;;;;;;;21.11;39.55;98185.38;4230348;28;21667;-60
2024/02/09 04:44:44;;;;;;;;;;;;;;;21.29;39.53;98179.63;4230787;28;20343;-59
2024/02/09 04:46:46;;;;;;;;;;;;;;;21.30;39.34;98191.97;4230940;28;19977;-59
2024/02/09 04:48:47;;;;;;;;;;;;;;;21.34;39.08;98191.44;4231118;28;19924;-59
2024/02/09 04:50:49;;;;;;;;;;;;;;;21.23;39.19;98195.41;4231225;28;19934;-59
2024/02/09 04:52:51;;;;;;;;;;;;;;;21.33;39.30;98184.41;4231019;28;20399;-59
2024/02/09 04:54:53;;;;;;;;;;;;;;;21.39;39.15;98169.50;4230532;28;19969;-59
2024/02/09 04:56:56;;;;;;;;;;;;;;;20.94;39.39;98179.41;4231071;28;19927;-59
2024/02/09 04:59:01;;;;;;;;;;;;;;;21.09;39.48;98179.38;4230787;28;20408;-60
2024/02/09 05:01:03;;;;;;;;;;;;;;;21.23;39.47;98176.69;4230945;28;19966;-59
2024/02/09 05:03:04;;;;;;;;;;;;;;;21.28;39.04;98173.47;4230894;28;19928;-59
2024/02/09 05:05:07;;;;;;;;;;;;;;;21.32;39.38;98180.09;4230808;28;19927;-59
2024/02/09 05:07:11;;;;;;;;;;;;;;;21.32;39.05;98189.97;4230654;28;20018;-59
2024/02/09 05:09:12;;;;;;;;;;;;;;;21.06;39.70;98175.25;4230780;28;19924;-59
2024/02/09 05:11:15;;;;;;;;;;;;;;;21.20;39.27;98186.94;4230786;28;20339;-59
2024/02/09 05:13:17;;;;;;;;;;;;;;;21.31;39.02;98188.31;4230871;28;19927;-60
2024/02/09 05:15:18;;;;;;;;;;;;;;;21.19;39.47;98195.97;4231019;28;20419;-59
2024/02/09 05:17:22;;;;;;;;;;;;;;;21.29;39.04;98175.13;4230486;28;19930;-60
2024/02/09 05:19:24;;;;;;;;;;;;;;;21.35;39.13;98200.28;4230542;28;20015;-61
2024/02/09 05:21:25;;;;;;;;;;;;;;;21.31;39.08;98185.63;4230733;28;20339;-60
2024/02/09 05:23:27;;;;;;;;;;;;;;;21.35;39.05;98184.22;4230716;28;20376;-59
2024/02/09 05:25:28;;;;;;;;;;;;;;;21.37;38.71;98174.19;4230491;28;19924;-60
2024/02/09 05:27:32;;;;;;;;;;;;;;;21.28;39.18;98180.66;4230837;28;19924;-63
2024/02/09 05:29:34;;;;;;;;;;;;;;;21.28;39.41;98157.44;4230675;28;19928;-59
2024/02/09 05:31:41;;;;;;;;;;;;;;;21.35;39.18;98168.19;4230594;28;19924;-59
2024/02/09 05:33:44;;;;;;;;;;;;;;;21.41;39.14;98179.97;4230664;28;20004;-58
2024/02/09 05:35:46;;;;;;;;;;;;;;;21.41;38.99;98180.84;4230758;28;20404;-59
2024/02/09 05:37:52;;;;;;;;;;;;;;;21.47;38.82;98182.75;4230569;28;19924;-57
2024/02/09 05:39:53;;;;;;;;;;;;;;;21.48;39.16;98176.41;4230400;28;20400;-60
2024/02/09 05:41:55;;;;;;;;;;;;;;;21.42;39.17;98173.63;4230368;28;19935;-61
2024/02/09 05:43:56;;;;;;;;;;;;;;;21.47;38.89;98185.44;4212484;28;20428;-64
2024/02/09 05:45:58;;;;;;;;;;;;;;;21.48;39.17;98181.75;4233762;28;20316;-58
2024/02/09 05:47:59;;;;;;;;;;;;;;;21.51;38.98;98178.69;4233694;28;19931;-58
2024/02/09 05:50:01;;;;;;;;;;;;;;;21.43;39.02;98184.13;4233683;28;19923;-59
2024/02/09 05:52:03;;;;;;;;;;;;;;;21.48;38.81;98168.38;4233779;28;19924;-58
2024/02/09 05:54:05;;;;;;;;;;;;;;;21.44;38.95;98167.06;4233422;28;19980;-58
2024/02/09 05:56:14;;;;;;;;;;;;;;;21.10;39.38;98173.84;4215525;28;20022;-58
2024/02/09 05:58:16;;;;;;;;;;;;;;;21.16;39.44;98167.75;4233503;28;20007;-58
2024/02/09 06:00:17;;;;;;;;;;;;;;;21.04;39.39;98166.56;4233569;28;19924;-58
2024/02/09 06:02:19;;;;;;;;;;;;;;;20.97;39.37;98165.66;4233705;28;19924;-58
2024/02/09 06:04:23;;;;;;;;;;;;;;;21.09;39.75;98160.69;4233689;28;20330;-59
2024/02/09 06:06:26;;;;;;;;;;;;;;;20.74;39.60;98178.09;4233513;28;19981;-59
2024/02/09 06:08:27;;;;;;;;;;;;;;;20.73;39.78;98151.56;4233132;28;20018;-59
2024/02/09 06:10:29;;;;;;;;;;;;;;;20.76;40.14;98164.53;4233388;28;19928;-58
2024/02/09 06:12:32;;;;;;;;;;;;;;;20.95;39.89;98173.00;4233676;28;20335;-58
2024/02/09 06:14:36;;;;;;;;;;;;;;;21.10;39.87;98175.69;4233334;28;19924;-58
2024/02/09 06:16:37;;;;;;;;;;;;;;;20.84;39.88;98161.78;4233418;28;19934;-59
2024/02/09 06:18:39;;;;;;;;;;;;;;;20.99;40.07;98159.09;4233479;28;19923;-58
2024/02/09 06:20:41;;;;;;;;;;;;;;;21.09;39.70;98182.88;4233250;28;19931;-58
2024/02/09 06:22:43;;;;;;;;;;;;;;;20.80;39.91;98179.19;4232765;28;20006;-59
2024/02/09 06:24:45;;;;;;;;;;;;;;;20.75;40.36;98176.22;4233168;28;20388;-60
2024/02/09 06:26:46;;;;;;;;;;;;;;;20.65;40.11;98181.00;4233191;28;19968;-60
2024/02/09 06:28:48;;;;;;;;;;;;;;;20.58;40.52;98173.72;4232911;28;19924;-60
2024/02/09 06:30:53;;;;;;;;;;;;;;;20.71;40.83;98185.59;4232919;28;20054;-60
2024/02/09 06:32:55;;;;;;;;;;;;;;;20.71;40.50;98181.06;4232940;28;20030;-59
2024/02/09 06:34:56;;;;;;;;;;;;;;;20.83;40.50;98173.47;4232780;28;19968;-58
2024/02/09 06:36:59;;;;;;;;;;;;;;;20.84;40.31;98187.66;4232591;28;19965;-59
2024/02/09 06:39:00;;;;;;;;;;;;;;;20.92;40.17;98184.91;4233053;28;19928;-58
2024/02/09 06:41:02;;;;;;;;;;;;;;;20.54;40.63;98196.44;4232789;28;19924;-59
2024/02/09 06:43:04;;;;;;;;;;;;;;;20.25;40.81;98184.66;4232839;28;19924;-58
2024/02/09 06:45:06;;;;;;;;;;;;;;;20.35;41.15;98187.09;4232786;28;19957;-58
2024/02/09 06:47:08;;;;;;;;;;;;;;;20.34;40.86;98193.44;4232882;28;20002;-58
2024/02/09 06:49:09;;;;;;;;;;;;;;;20.38;41.06;98201.94;4232973;28;19927;-58
2024/02/09 06:51:11;;;;;;;;;;;;;;;20.19;41.28;98197.91;4232217;28;20300;-58
2024/02/09 06:53:13;;;;;;;;;;;;;;;20.24;41.13;98199.03;4232810;28;19977;-58
2024/02/09 06:55:17;;;;;;;;;;;;;;;20.36;41.20;98199.41;4232038;28;19932;-57
2024/02/09 06:57:22;;;;;;;;;;;;;;;20.53;40.98;98196.63;4232574;28;19924;-60
2024/02/09 06:59:26;;;;;;;;;;;;;;;20.44;41.29;98195.88;4232670;28;19927;-60
2024/02/09 07:01:31;;;;;;;;;;;;;;;20.40;41.16;98199.88;4232505;28;19924;-58
2024/02/09 07:03:32;;;;;;;;;;;;;;;20.33;40.95;98201.63;4232415;28;19977;-58
2024/02/09 07:05:35;;;;;;;;;;;;;;;20.38;41.33;98209.94;4232056;28;19978;-59
2024/02/09 07:07:43;;;;;;;;;;;;;;;20.32;41.27;98214.16;4232565;28;19923;-60
2024/02/09 07:09:45;;;;;;;;;;;;;;;20.37;41.23;98217.09;4232320;28;19928;-58
2024/02/09 07:11:47;;;;;;;;;;;;;;;20.40;41.10;98218.56;4232580;28;19947;-59
2024/02/09 07:13:49;;;;;;;;;;;;;;;20.48;40.90;98228.38;4232265;28;20304;-59
2024/02/09 07:15:50;;;;;;;;;;;;;;;20.46;40.81;98228.53;4232448;28;20396;-58
2024/02/09 07:17:56;;;;;;;;;;;;;;;20.55;41.09;98232.81;4232343;28;19928;-58
2024/02/09 07:19:59;;;;;;;;;;;;;;;20.58;40.81;98224.44;4232034;28;19928;-59
2024/02/09 07:22:01;;;;;;;;;;;;;;;20.29;41.27;98237.69;4232375;28;19923;-58
2024/02/09 07:24:04;;;;;;;;;;;;;;;20.40;41.25;98234.59;4232026;28;19986;-58
2024/02/09 07:26:09;;;;;;;;;;;;;;;20.53;41.17;98221.47;4231999;28;20013;-58
2024/02/09 07:28:11;;;;;;;;;;;;;;;20.51;40.98;98220.00;4232298;28;19923;-59
2024/02/09 07:30:15;;;;;;;;;;;;;;;20.48;41.14;98234.53;4231916;28;19930;-57
2024/02/09 07:32:16;;;;;;;;;;;;;;;20.62;41.29;98232.94;4231876;28;19975;-59
2024/02/09 07:34:18;;;;;;;;;;;;;;;20.67;40.70;98227.03;4231976;28;19954;-59
2024/02/09 07:36:21;;;;;;;;;;;;;;;20.66;40.86;98228.88;4231450;28;19924;-58
2024/02/09 07:38:23;;;;;;;;;;;;;;;20.76;40.84;98228.66;4232109;28;19959;-63
2024/02/09 07:40:25;;;;;;;;;;;;;;;20.81;40.76;98226.25;4231721;28;19930;-59
2024/02/09 07:42:26;;;;;;;;;;;;;;;20.82;40.71;98230.59;4231871;28;19928;-58
2024/02/09 07:44:29;;;;;;;;;;;;;;;20.64;40.88;98222.88;4231917;28;19924;-56
2024/02/09 07:46:31;;;;;;;;;;;;;;;20.74;40.87;98230.66;4231865;28;19924;-56
2024/02/09 07:48:32;;;;;;;;;;;;;;;20.74;40.73;98236.00;4231715;28;19924;-58
2024/02/09 07:50:41;;;;;;;;;;;;;;;20.66;40.70;98234.22;4231462;28;20343;-59
2024/02/09 07:52:43;;;;;;;;;;;;;;;20.65;41.10;98229.06;4231740;28;19924;-58
2024/02/09 07:54:45;;;;;;;;;;;;;;;20.63;40.94;98234.56;4231674;28;19928;-57
2024/02/09 07:56:46;;;;;;;;;;;;;;;20.74;41.08;98228.00;4231831;28;20026;-59
2024/02/09 07:58:48;;;;;;;;;;;;;;;20.87;40.61;98236.22;4231459;28;19924;-59
2024/02/09 08:00:53;;;;;;;;;;;;;;;20.90;40.52;98237.72;4231577;28;19930;-59
2024/02/09 08:02:58;;;;;;;;;;;;;;;20.83;40.92;98242.94;4231669;28;19931;-60
2024/02/09 08:05:07;;;;;;;;;;;;;;;20.88;40.70;98234.38;4231675;28;20018;-59
2024/02/09 08:07:09;;;;;;;;;;;;;;;21.00;40.66;98230.25;4230995;28;19958;-59
2024/02/09 08:09:11;;;;;;;;;;;;;;;21.01;40.50;98239.06;4231621;28;19924;-59
2024/02/09 08:11:12;;;;;;;;;;;;;;;20.97;40.61;98241.28;4231507;28;19930;-59
2024/02/09 08:13:14;;;;;;;;;;;;;;;21.00;40.61;98242.78;4231460;28;20034;-59
2024/02/09 08:15:15;;;;;;;;;;;;;;;20.99;40.56;98238.44;4231328;28;20022;-59
2024/02/09 08:17:18;;;;;;;;;;;;;;;20.92;40.59;98245.53;4231558;28;20415;-59
2024/02/09 08:19:19;;;;;;;;;;;;;;;20.80;41.09;98237.13;4231026;28;19928;-58
2024/02/09 08:21:22;;;;;;;;;;;;;;;20.84;40.96;98244.59;4231381;28;19923;-60
2024/02/09 08:23:25;;;;;;;;;;;;;;;21.01;40.73;98247.09;4231286;28;19931;-59
2024/02/09 08:25:27;;;;;;;;;;;;;;;20.99;40.76;98241.94;4231238;28;20019;-59
2024/02/09 08:27:28;;;;;;;;;;;;;;;20.96;40.77;98245.00;4231482;28;20339;-59
2024/02/09 08:29:30;;;;;;;;;;;;;;;20.71;41.13;98245.19;4231076;28;20030;-58
2024/02/09 08:31:31;;;;;;;;;;;;;;;20.91;41.10;98244.69;4231286;28;19963;-59
2024/02/09 08:33:33;;;;;;;;;;;;;;;20.98;41.12;98239.47;4231097;28;19923;-56
2024/02/09 08:35:35;;;;;;;;;;;;;;;21.07;40.79;98254.41;4231213;28;20420;-59
2024/02/09 08:37:36;;;;;;;;;;;;;;;21.02;40.85;98240.75;4231126;28;20014;-59
2024/02/09 08:39:40;;;;;;;;;;;;;;;20.60;41.43;98250.97;4231099;28;20486;-59
2024/02/09 08:41:42;;;;;;;;;;;;;;;20.77;41.51;98249.00;4230975;28;19927;-59
2024/02/09 08:43:44;;;;;;;;;;;;;;;20.91;41.16;98250.03;4231194;28;19930;-59
2024/02/09 08:45:46;;;;;;;;;;;;;;;20.73;41.24;98245.88;4231078;28;20316;-59
2024/02/09 08:47:47;;;;;;;;;;;;;;;20.82;41.13;98253.81;4212474;28;20010;-59
2024/02/09 08:49:49;;;;;;;;;;;;;;;20.93;40.80;98245.34;4230963;28;19924;-59
2024/02/09 08:51:51;;;;;;;;;;;;;;;20.83;41.11;98253.63;4231022;28;20396;-59
2024/02/09 08:53:52;;;;;;;;;;;;;;;20.78;41.12;98249.81;4231005;28;19924;-59
2024/02/09 08:55:54;;;;;;;;;;;;;;;20.76;41.11;98254.53;4231124;28;19979;-59
2024/02/09 08:57:56;;;;;;;;;;;;;;;20.81;41.42;98252.97;4231105;28;19924;-59
2024/02/09 08:59:58;;;;;;;;;;;;;;;20.69;41.25;98257.06;4231099;28;20431;-58
2024/02/09 09:02:00;;;;;;;;;;;;;;;20.74;41.45;98247.53;4230625;28;20393;-58
2024/02/09 09:04:03;;;;;;;;;;;;;;;20.69;41.13;98259.72;4230903;28;19924;-57
2024/02/09 09:06:05;;;;;;;;;;;;;;;20.50;41.75;98261.91;4231003;28;19924;-58
2024/02/09 09:08:09;;;;;;;;;;;;;;;20.53;41.49;98261.53;4230919;28;19927;-58
2024/02/09 09:10:10;;;;;;;;;;;;;;;20.69;41.30;98260.56;4230639;28;19924;-57
2024/02/09 09:12:12;;;;;;;;;;;;;;;20.56;41.18;98268.34;4230946;28;19924;-57
2024/02/09 09:14:14;;;;;;;;;;;;;;;20.64;41.45;98262.13;4230972;28;19924;-57
2024/02/09 09:16:16;;;;;;;;;;;;;;;20.80;41.33;98261.16;4230822;28;19924;-58
2024/02/09 09:18:18;;;;;;;;;;;;;;;20.77;40.73;98267.72;4230988;28;19932;-59
2024/02/09 09:20:19;;;;;;;;;;;;;;;20.29;41.55;98267.88;4234003;28;19923;-58
2024/02/09 09:22:23;;;;;;;;;;;;;;;20.30;41.83;98269.53;4234138;28;19934;-58
2024/02/09 09:24:24;;;;;;;;;;;;;;;20.55;41.84;98267.53;4234164;28;20262;-58
2024/02/09 09:26:31;;;;;;;;;;;;;;;20.68;41.33;98258.91;4234578;28;19923;-57
2024/02/09 09:28:33;;;;;;;;;;;;;;;20.79;41.06;98263.03;4234062;28;19923;-56
2024/02/09 09:30:35;;;;;;;;;;;;;;;20.85;40.81;98262.28;4233675;28;19948;-57
2024/02/09 09:32:37;;;;;;;;;;;;;;;20.95;40.77;98272.72;4234070;28;19930;-58
2024/02/09 09:34:41;;;;;;;;;;;;;;;20.96;40.72;98269.03;4233728;28;19923;-58
2024/02/09 09:36:43;;;;;;;;;;;;;;;20.96;40.79;98271.72;4233894;28;19939;-59
2024/02/09 09:38:47;;;;;;;;;;;;;;;20.94;40.90;98279.06;4234085;28;20205;-58
2024/02/09 09:40:52;;;;;;;;;;;;;;;20.95;40.71;98279.88;4233600;28;19923;-57
2024/02/09 09:42:54;;;;;;;;;;;;;;;20.88;40.68;98279.81;4233876;28;19923;-58
2024/02/09 09:44:56;;;;;;;;;;;;;;;20.93;40.93;98274.75;4233505;28;20046;-57
2024/02/09 09:46:58;;;;;;;;;;;;;;;20.97;40.57;98284.03;4233904;28;20101;-55
2024/02/09 09:49:00;;;;;;;;;;;;;;;21.01;40.54;98285.34;4233807;28;19930;-59
2024/02/09 09:51:02;;;;;;;;;;;;;;;21.02;40.60;98275.47;4233637;28;19923;-59
2024/02/09 09:53:09;;;;;;;;;;;;;;;21.01;40.74;98287.19;4233554;28;19927;-59
2024/02/09 09:55:11;;;;;;;;;;;;;;;20.63;40.92;98273.81;4233801;28;20292;-59
2024/02/09 09:57:14;;;;;;;;;;;;;;;20.69;41.20;98271.25;4233767;28;20037;-58
2024/02/09 09:59:17;;;;;;;;;;;;;;;20.81;41.31;98274.34;4233500;28;19924;-59
2024/02/09 10:01:20;;;;;;;;;;;;;;;20.83;40.69;98276.84;4233096;28;20353;-58
2024/02/09 10:03:26;;;;;;;;;;;;;;;20.86;40.89;98274.66;4233632;28;19924;-59
2024/02/09 10:05:30;;;;;;;;;;;;;;;20.83;40.71;98290.22;4233591;28;19951;-58
2024/02/09 10:07:32;;;;;;;;;;;;;;;20.66;40.85;98278.81;4233703;28;20022;-58
2024/02/09 10:09:34;;;;;;;;;;;;;;;20.74;41.14;98273.41;4233558;28;20377;-58
2024/02/09 10:11:36;;;;;;;;;;;;;;;20.90;40.88;98278.59;4233277;28;19923;-58
2024/02/09 10:13:40;;;;;;;;;;;;;;;20.93;40.92;98276.59;4233293;28;20316;-60
2024/02/09 10:15:43;;;;;;;;;;;;;;;20.82;40.84;98278.66;4233328;28;20304;-61
2024/02/09 10:17:44;;;;;;;;;;;;;;;20.93;40.72;98282.75;4233595;28;20419;-58
2024/02/09 10:19:46;;;;;;;;;;;;;;;20.90;41.14;98277.78;4233417;28;19923;-61
2024/02/09 10:21:48;;;;;;;;;;;;;;;21.03;40.75;98269.97;4233442;28;19935;-58
2024/02/09 10:23:53;;;;;;;;;;;;;;;21.10;40.79;98272.72;4233238;28;20376;-58
2024/02/09 10:25:56;;;;;;;;;;;;;;;21.21;40.44;98290.16;4233232;28;20014;-59
2024/02/09 10:27:58;;;;;;;;;;;;;;;21.21;40.54;98282.16;4233171;28;20324;-58
2024/02/09 10:30:00;;;;;;;;;;;;;;;21.20;40.44;98278.66;4232142;28;19928;-58
2024/02/09 10:32:02;;;;;;;;;;;;;;;21.02;40.44;98273.66;4232877;28;19955;-58
2024/02/09 10:34:03;;;;;;;;;;;;;;;21.07;40.72;98278.47;4232936;28;19930;-60
2024/02/09 10:36:05;;;;;;;;;;;;;;;21.02;40.65;98278.16;4214921;28;19932;-58
2024/02/09 10:38:07;;;;;;;;;;;;;;;21.15;40.52;98277.53;4232903;28;19927;-58
2024/02/09 10:40:11;;;;;;;;;;;;;;;21.24;40.71;98284.47;4232827;28;19923;-58
2024/02/09 10:42:14;;;;;;;;;;;;;;;21.30;40.20;98283.72;4232862;28;20031;-58
2024/02/09 10:44:17;;;;;;;;;;;;;;;21.36;40.32;98280.31;4232421;28;20408;-60
2024/02/09 10:46:23;;;;;;;;;;;;;;;21.36;40.20;98279.47;4232806;28;19930;-60
2024/02/09 10:48:28;;;;;;;;;;;;;;;21.40;40.48;98270.09;4232774;28;19924;-60
2024/02/09 10:50:31;;;;;;;;;;;;;;;21.48;39.93;98272.66;4232649;28;19924;-60
2024/02/09 10:52:37;;;;;;;;;;;;;;;21.47;40.08;98272.81;4232885;28;20416;-59
2024/02/09 10:54:45;;;;;;;;;;;;;;;21.27;40.31;98281.41;4232588;28;20018;-60
2024/02/09 10:56:48;;;;;;;;;;;;;;;21.32;40.39;98275.50;4232545;28;19946;-59
2024/02/09 10:58:50;;;;;;;;;;;;;;;21.42;40.35;98268.03;4232358;28;19924;-59
2024/02/09 11:00:51;;;;;;;;;;;;;;;21.32;40.64;98268.31;4232853;28;20274;-59
2024/02/09 11:02:53;;;;;;;;;;;;;;;21.35;40.13;98262.59;4232706;28;19924;-59
2024/02/09 11:04:58;;;;;;;;;;;;;;;21.20;40.73;98278.66;4214558;28;19924;-59
2024/02/09 11:07:01;;;;;;;;;;;;;;;21.14;40.74;98271.38;4232556;28;19924;-59
2024/02/09 11:09:03;;;;;;;;;;;;;;;21.26;40.54;98271.72;4232446;28;20018;-59
2024/02/09 11:11:05;;;;;;;;;;;;;;;21.33;40.66;98263.81;4232250;28;19967;-59
2024/02/09 11:13:06;;;;;;;;;;;;;;;21.19;40.34;98266.28;4231976;28;19923;-59
2024/02/09 11:15:15;;;;;;;;;;;;;;;21.26;40.50;98266.38;4232250;28;19936;-59
2024/02/09 11:17:20;;;;;;;;;;;;;;;21.40;40.61;98270.09;4232470;28;19969;-58
2024/02/09 11:19:22;;;;;;;;;;;;;;;21.42;40.23;98267.22;4232459;28;19931;-59
2024/02/09 11:21:25;;;;;;;;;;;;;;;21.27;40.04;98265.38;4232256;28;19946;-58
2024/02/09 11:23:28;;;;;;;;;;;;;;;21.25;40.71;98264.72;4231997;28;20018;-59
2024/02/09 11:25:32;;;;;;;;;;;;;;;21.28;40.66;98258.19;4232178;28;19928;-58
2024/02/09 11:27:35;;;;;;;;;;;;;;;21.39;40.43;98252.38;4231896;28;20300;-59
2024/02/09 11:29:37;;;;;;;;;;;;;;;21.47;40.43;98249.59;4232162;28;19945;-59
2024/02/09 11:31:39;;;;;;;;;;;;;;;21.49;40.26;98252.91;4232183;28;19927;-58
2024/02/09 11:33:41;;;;;;;;;;;;;;;21.57;39.94;98260.06;4232013;28;19981;-59
2024/02/09 11:35:47;;;;;;;;;;;;;;;21.60;39.88;98248.97;4232022;28;19931;-59
2024/02/09 11:37:48;;;;;;;;;;;;;;;21.45;39.83;98251.63;4232122;28;20333;-58
2024/02/09 11:39:50;;;;;;;;;;;;;;;21.31;40.45;98249.78;4232158;28;19924;-58
2024/02/09 11:41:54;;;;;;;;;;;;;;;21.23;40.74;98246.19;4230777;28;20355;-58
2024/02/09 11:43:56;;;;;;;;;;;;;;;21.33;40.55;98239.75;4231723;28;19946;-58
2024/02/09 11:45:58;;;;;;;;;;;;;;;21.43;40.35;98231.44;4232252;28;20038;-58
2024/02/09 11:48:00;;;;;;;;;;;;;;;21.46;40.38;98225.69;4231812;28;19924;-59
2024/02/09 11:50:01;;;;;;;;;;;;;;;21.51;40.31;98228.66;4231775;28;19924;-60
2024/02/09 11:52:04;;;;;;;;;;;;;;;21.46;40.26;98221.22;4231848;28;19955;-60
2024/02/09 11:54:09;;;;;;;;;;;;;;;21.15;40.52;98218.72;4231668;28;19924;-60
2024/02/09 11:56:11;;;;;;;;;;;;;;;20.91;41.28;98215.31;4231455;28;19959;-60
2024/02/09 11:58:12;;;;;;;;;;;;;;;21.03;40.71;98210.34;4231795;28;19923;-60
2024/02/09 12:00:15;;;;;;;;;;;;;;;20.95;41.18;98210.41;4231652;28;19924;-60
2024/02/09 12:02:17;;;;;;;;;;;;;;;20.99;40.98;98211.72;4231357;28;19924;-60
2024/02/09 12:04:24;;;;;;;;;;;;;;;20.99;40.74;98201.84;4231436;28;20009;-59
2024/02/09 12:06:29;;;;;;;;;;;;;;;21.11;41.12;98212.09;4229457;28;19923;-60
2024/02/09 12:08:31;;;;;;;;;;;;;;;21.21;40.69;98208.13;4231364;28;19989;-60
2024/02/09 12:10:36;;;;;;;;;;;;;;;21.30;41.02;98206.19;4227024;28;19930;-60
2024/02/09 12:12:38;;;;;;;;;;;;;;;21.34;40.60;98207.47;4228370;28;19951;-60
2024/02/09 12:14:39;;;;;;;;;;;;;;;21.37;40.92;98206.28;4231454;28;20044;-60
2024/02/09 12:16:41;;;;;;;;;;;;;;;21.41;40.60;98201.38;4231314;28;20303;-60
2024/02/09 12:18:51;;;;;;;;;;;;;;;21.44;40.87;98201.03;4231434;28;19924;-60
2024/02/09 12:20:54;;;;;;;;;;;;;;;21.43;40.68;98202.84;4227814;28;20270;-61
2024/02/09 12:22:56;;;;;;;;;;;;;;;21.49;40.69;98199.41;4231323;28;19923;-60
2024/02/09 12:25:04;;;;;;;;;;;;;;;21.53;40.67;98191.84;4230740;28;20359;-58
2024/02/09 12:27:16;;;;;;;;;;;;;;;21.54;40.48;98193.50;4229168;28;20415;-60
2024/02/09 12:29:17;;;;;;;;;;;;;;;21.57;40.78;98195.00;4230681;28;20405;-59
2024/02/09 12:31:19;;;;;;;;;;;;;;;21.60;40.33;98187.44;4230487;28;20023;-59
2024/02/09 12:33:22;;;;;;;;;;;;;;;21.61;40.49;98185.63;4230312;28;19931;-60
2024/02/09 12:35:28;;;;;;;;;;;;;;;21.62;40.34;98181.94;4225705;28;19974;-60
2024/02/09 12:37:30;;;;;;;;;;;;;;;21.62;40.32;98181.94;4230096;28;19928;-60
2024/02/09 12:39:33;;;;;;;;;;;;;;;21.62;40.42;98184.59;4229993;28;19928;-59
2024/02/09 12:41:40;;;;;;;;;;;;;;;21.64;40.50;98178.03;4226448;28;20444;-60
2024/02/09 12:43:45;;;;;;;;;;;;;;;21.66;40.59;98178.66;4229112;28;19923;-61
2024/02/09 12:45:47;;;;;;;;;;;;;;;21.68;40.49;98179.31;4225859;28;19932;-61